sensor_id;sensor_type;location;lat;lon;timestamp;P1;durP1;ratioP1;P2;durP2;ratioP2
9526;SDS011;4802;51.494;6.770;2022-08-24T00:00:47;2.87;;;1.53;;
9526;SDS011;4802;51.494;6.770;2022-08-24T00:03:19;1.60;;;1.50;;
9526;SDS011;4802;51.494;6.770;2022-08-24T00:06:00;1.87;;;1.77;;
9526;SDS011;4802;51.494;6.770;2022-08-24T00:08:49;3.67;;;1.80;;
9526;SDS011;4802;51.494;6.770;2022-08-24T00:11:27;4.87;;;1.67;;
9526;SDS011;4802;51.494;6.770;2022-08-24T00:14:16;2.80;;;2.20;;
9526;SDS011;4802;51.494;6.770;2022-08-24T00:20:03;2.83;;;1.53;;
9526;SDS011;4802;51.494;6.770;2022-08-24T00:22:33;2.63;;;1.33;;
9526;SDS011;4802;51.494;6.770;2022-08-24T00:25:03;2.40;;;2.20;;
9526;SDS011;4802;51.494;6.770;2022-08-24T00:27:33;1.67;;;1.53;;
9526;SDS011;4802;51.494;6.770;2022-08-24T00:30:03;3.07;;;2.80;;
9526;SDS011;4802;51.494;6.770;2022-08-24T00:32:33;5.53;;;2.00;;
9526;SDS011;4802;51.494;6.770;2022-08-24T00:35:16;2.30;;;1.67;;
9526;SDS011;4802;51.494;6.770;2022-08-24T00:37:47;2.00;;;1.80;;
9526;SDS011;4802;51.494;6.770;2022-08-24T00:40:24;3.63;;;1.47;;
9526;SDS011;4802;51.494;6.770;2022-08-24T00:42:54;1.27;;;1.20;;
9526;SDS011;4802;51.494;6.770;2022-08-24T00:45:29;2.53;;;2.40;;
9526;SDS011;4802;51.494;6.770;2022-08-24T00:47:59;1.60;;;1.50;;
9526;SDS011;4802;51.494;6.770;2022-08-24T00:50:34;1.40;;;1.30;;
9526;SDS011;4802;51.494;6.770;2022-08-24T00:53:07;1.90;;;1.80;;
9526;SDS011;4802;51.494;6.770;2022-08-24T00:55:41;2.60;;;2.07;;
9526;SDS011;4802;51.494;6.770;2022-08-24T00:58:14;1.57;;;1.43;;
9526;SDS011;4802;51.494;6.770;2022-08-24T01:00:48;3.33;;;1.73;;
9526;SDS011;4802;51.494;6.770;2022-08-24T01:03:26;3.20;;;2.03;;
9526;SDS011;4802;51.494;6.770;2022-08-24T01:08:45;1.93;;;1.20;;
9526;SDS011;4802;51.494;6.770;2022-08-24T01:11:25;5.90;;;2.27;;
9526;SDS011;4802;51.494;6.770;2022-08-24T01:14:02;2.50;;;1.77;;
9526;SDS011;4802;51.494;6.770;2022-08-24T01:16:36;1.40;;;1.30;;
9526;SDS011;4802;51.494;6.770;2022-08-24T01:19:28;2.07;;;1.87;;
9526;SDS011;4802;51.494;6.770;2022-08-24T01:22:08;2.30;;;2.10;;
9526;SDS011;4802;51.494;6.770;2022-08-24T01:24:47;2.13;;;1.93;;
9526;SDS011;4802;51.494;6.770;2022-08-24T01:27:17;1.57;;;1.47;;
9526;SDS011;4802;51.494;6.770;2022-08-24T01:29:56;1.37;;;1.27;;
9526;SDS011;4802;51.494;6.770;2022-08-24T01:32:28;1.30;;;1.20;;
9526;SDS011;4802;51.494;6.770;2022-08-24T01:34:57;0.90;;;0.90;;
9526;SDS011;4802;51.494;6.770;2022-08-24T01:37:26;2.33;;;1.37;;
9526;SDS011;4802;51.494;6.770;2022-08-24T01:40:00;3.20;;;1.30;;
9526;SDS011;4802;51.494;6.770;2022-08-24T01:42:33;5.97;;;1.87;;
9526;SDS011;4802;51.494;6.770;2022-08-24T01:45:02;1.77;;;1.40;;
9526;SDS011;4802;51.494;6.770;2022-08-24T01:47:32;2.00;;;1.60;;
9526;SDS011;4802;51.494;6.770;2022-08-24T01:50:02;1.30;;;1.30;;
9526;SDS011;4802;51.494;6.770;2022-08-24T01:52:32;1.63;;;1.53;;
9526;SDS011;4802;51.494;6.770;2022-08-24T01:55:26;1.13;;;0.90;;
9526;SDS011;4802;51.494;6.770;2022-08-24T01:57:55;2.60;;;1.50;;
9526;SDS011;4802;51.494;6.770;2022-08-24T02:00:24;1.43;;;1.33;;
9526;SDS011;4802;51.494;6.770;2022-08-24T02:02:54;1.67;;;1.57;;
9526;SDS011;4802;51.494;6.770;2022-08-24T02:05:23;1.70;;;1.60;;
9526;SDS011;4802;51.494;6.770;2022-08-24T02:08:16;2.00;;;1.90;;
9526;SDS011;4802;51.494;6.770;2022-08-24T02:10:46;2.03;;;1.57;;
9526;SDS011;4802;51.494;6.770;2022-08-24T02:13:23;2.10;;;1.43;;
9526;SDS011;4802;51.494;6.770;2022-08-24T02:16:02;2.00;;;1.90;;
9526;SDS011;4802;51.494;6.770;2022-08-24T02:18:39;1.37;;;1.37;;
9526;SDS011;4802;51.494;6.770;2022-08-24T02:21:13;0.93;;;0.93;;
9526;SDS011;4802;51.494;6.770;2022-08-24T02:23:51;2.00;;;1.87;;
9526;SDS011;4802;51.494;6.770;2022-08-24T02:26:24;1.67;;;1.57;;
9526;SDS011;4802;51.494;6.770;2022-08-24T02:29:01;1.77;;;1.67;;
9526;SDS011;4802;51.494;6.770;2022-08-24T02:31:39;1.67;;;1.57;;
9526;SDS011;4802;51.494;6.770;2022-08-24T02:34:13;1.87;;;1.70;;
9526;SDS011;4802;51.494;6.770;2022-08-24T02:36:46;5.03;;;2.10;;
9526;SDS011;4802;51.494;6.770;2022-08-24T02:39:15;3.10;;;2.80;;
9526;SDS011;4802;51.494;6.770;2022-08-24T02:41:46;2.40;;;2.07;;
9526;SDS011;4802;51.494;6.770;2022-08-24T02:44:15;2.17;;;2.07;;
9526;SDS011;4802;51.494;6.770;2022-08-24T02:46:44;1.90;;;1.80;;
9526;SDS011;4802;51.494;6.770;2022-08-24T02:49:13;1.93;;;1.70;;
9526;SDS011;4802;51.494;6.770;2022-08-24T02:51:44;2.83;;;1.70;;
9526;SDS011;4802;51.494;6.770;2022-08-24T02:54:14;1.67;;;1.27;;
9526;SDS011;4802;51.494;6.770;2022-08-24T02:56:44;1.63;;;1.30;;
9526;SDS011;4802;51.494;6.770;2022-08-24T02:59:15;1.33;;;1.20;;
9526;SDS011;4802;51.494;6.770;2022-08-24T03:01:45;3.80;;;1.60;;
9526;SDS011;4802;51.494;6.770;2022-08-24T03:04:16;1.73;;;1.50;;
9526;SDS011;4802;51.494;6.770;2022-08-24T03:06:45;1.50;;;1.40;;
9526;SDS011;4802;51.494;6.770;2022-08-24T03:09:14;4.00;;;1.27;;
9526;SDS011;4802;51.494;6.770;2022-08-24T03:11:43;2.13;;;1.93;;
9526;SDS011;4802;51.494;6.770;2022-08-24T03:14:14;2.80;;;1.53;;
9526;SDS011;4802;51.494;6.770;2022-08-24T03:16:44;1.57;;;1.47;;
9526;SDS011;4802;51.494;6.770;2022-08-24T03:19:13;3.33;;;1.60;;
9526;SDS011;4802;51.494;6.770;2022-08-24T03:21:42;7.17;;;4.10;;
9526;SDS011;4802;51.494;6.770;2022-08-24T03:24:11;5.03;;;3.97;;
9526;SDS011;4802;51.494;6.770;2022-08-24T03:26:40;11.83;;;2.50;;
9526;SDS011;4802;51.494;6.770;2022-08-24T03:29:10;2.13;;;1.90;;
9526;SDS011;4802;51.494;6.770;2022-08-24T03:31:42;3.70;;;2.33;;
9526;SDS011;4802;51.494;6.770;2022-08-24T03:34:12;4.07;;;2.37;;
9526;SDS011;4802;51.494;6.770;2022-08-24T03:36:41;2.40;;;2.20;;
9526;SDS011;4802;51.494;6.770;2022-08-24T03:39:13;3.97;;;2.40;;
9526;SDS011;4802;51.494;6.770;2022-08-24T03:41:42;1.47;;;1.37;;
9526;SDS011;4802;51.494;6.770;2022-08-24T03:44:14;2.03;;;1.93;;
9526;SDS011;4802;51.494;6.770;2022-08-24T03:46:50;2.40;;;1.97;;
9526;SDS011;4802;51.494;6.770;2022-08-24T03:49:19;8.93;;;1.93;;
9526;SDS011;4802;51.494;6.770;2022-08-24T03:51:49;7.03;;;1.60;;
9526;SDS011;4802;51.494;6.770;2022-08-24T03:54:18;4.10;;;2.10;;
9526;SDS011;4802;51.494;6.770;2022-08-24T03:56:47;3.80;;;1.67;;
9526;SDS011;4802;51.494;6.770;2022-08-24T03:59:16;2.47;;;1.77;;
9526;SDS011;4802;51.494;6.770;2022-08-24T04:01:45;2.47;;;2.27;;
9526;SDS011;4802;51.494;6.770;2022-08-24T04:04:16;1.93;;;1.63;;
9526;SDS011;4802;51.494;6.770;2022-08-24T04:06:45;5.13;;;2.03;;
9526;SDS011;4802;51.494;6.770;2022-08-24T04:09:17;1.70;;;1.60;;
9526;SDS011;4802;51.494;6.770;2022-08-24T04:12:05;3.73;;;2.00;;
9526;SDS011;4802;51.494;6.770;2022-08-24T04:14:34;2.40;;;2.20;;
9526;SDS011;4802;51.494;6.770;2022-08-24T04:17:04;2.33;;;1.80;;
9526;SDS011;4802;51.494;6.770;2022-08-24T04:19:34;2.70;;;2.50;;
9526;SDS011;4802;51.494;6.770;2022-08-24T04:22:03;3.50;;;2.20;;
9526;SDS011;4802;51.494;6.770;2022-08-24T04:24:32;1.77;;;1.70;;
9526;SDS011;4802;51.494;6.770;2022-08-24T04:27:01;2.70;;;1.73;;
9526;SDS011;4802;51.494;6.770;2022-08-24T04:29:30;2.23;;;1.90;;
9526;SDS011;4802;51.494;6.770;2022-08-24T04:31:59;5.27;;;3.30;;
9526;SDS011;4802;51.494;6.770;2022-08-24T04:34:29;2.23;;;2.03;;
9526;SDS011;4802;51.494;6.770;2022-08-24T04:36:59;4.40;;;2.53;;
9526;SDS011;4802;51.494;6.770;2022-08-24T04:39:35;3.27;;;2.80;;
9526;SDS011;4802;51.494;6.770;2022-08-24T04:42:05;2.87;;;2.30;;
9526;SDS011;4802;51.494;6.770;2022-08-24T04:44:35;4.47;;;2.07;;
9526;SDS011;4802;51.494;6.770;2022-08-24T04:47:04;4.17;;;2.13;;
9526;SDS011;4802;51.494;6.770;2022-08-24T04:49:34;2.03;;;1.93;;
9526;SDS011;4802;51.494;6.770;2022-08-24T04:52:05;2.27;;;2.17;;
9526;SDS011;4802;51.494;6.770;2022-08-24T04:54:35;3.00;;;2.57;;
9526;SDS011;4802;51.494;6.770;2022-08-24T04:57:04;1.53;;;1.43;;
9526;SDS011;4802;51.494;6.770;2022-08-24T04:59:33;2.63;;;1.63;;
9526;SDS011;4802;51.494;6.770;2022-08-24T05:02:04;1.67;;;1.57;;
9526;SDS011;4802;51.494;6.770;2022-08-24T05:04:33;1.60;;;1.50;;
9526;SDS011;4802;51.494;6.770;2022-08-24T05:07:05;3.90;;;2.23;;
9526;SDS011;4802;51.494;6.770;2022-08-24T05:09:34;2.17;;;1.90;;
9526;SDS011;4802;51.494;6.770;2022-08-24T05:12:04;3.27;;;1.90;;
9526;SDS011;4802;51.494;6.770;2022-08-24T05:14:34;7.50;;;2.30;;
9526;SDS011;4802;51.494;6.770;2022-08-24T05:17:03;3.50;;;1.67;;
9526;SDS011;4802;51.494;6.770;2022-08-24T05:19:35;1.70;;;1.43;;
9526;SDS011;4802;51.494;6.770;2022-08-24T05:22:06;4.10;;;2.67;;
9526;SDS011;4802;51.494;6.770;2022-08-24T05:24:37;4.13;;;2.90;;
9526;SDS011;4802;51.494;6.770;2022-08-24T05:27:08;1.80;;;1.53;;
9526;SDS011;4802;51.494;6.770;2022-08-24T05:29:40;2.70;;;1.43;;
9526;SDS011;4802;51.494;6.770;2022-08-24T05:32:09;2.03;;;1.77;;
9526;SDS011;4802;51.494;6.770;2022-08-24T05:34:39;2.83;;;2.63;;
9526;SDS011;4802;51.494;6.770;2022-08-24T05:37:12;2.10;;;1.90;;
9526;SDS011;4802;51.494;6.770;2022-08-24T05:39:43;2.77;;;2.00;;
9526;SDS011;4802;51.494;6.770;2022-08-24T05:42:12;1.90;;;1.80;;
9526;SDS011;4802;51.494;6.770;2022-08-24T05:44:41;2.97;;;2.30;;
9526;SDS011;4802;51.494;6.770;2022-08-24T05:47:10;2.33;;;2.03;;
9526;SDS011;4802;51.494;6.770;2022-08-24T05:49:40;1.20;;;1.10;;
9526;SDS011;4802;51.494;6.770;2022-08-24T05:52:11;3.73;;;2.40;;
9526;SDS011;4802;51.494;6.770;2022-08-24T05:54:44;1.70;;;1.60;;
9526;SDS011;4802;51.494;6.770;2022-08-24T05:57:13;2.10;;;1.97;;
9526;SDS011;4802;51.494;6.770;2022-08-24T05:59:43;2.40;;;1.80;;
9526;SDS011;4802;51.494;6.770;2022-08-24T06:02:12;2.33;;;2.13;;
9526;SDS011;4802;51.494;6.770;2022-08-24T06:04:41;3.33;;;2.50;;
9526;SDS011;4802;51.494;6.770;2022-08-24T06:07:11;3.00;;;2.20;;
9526;SDS011;4802;51.494;6.770;2022-08-24T06:09:42;1.97;;;1.77;;
9526;SDS011;4802;51.494;6.770;2022-08-24T06:12:12;3.10;;;1.97;;
9526;SDS011;4802;51.494;6.770;2022-08-24T06:14:43;2.27;;;2.17;;
9526;SDS011;4802;51.494;6.770;2022-08-24T06:17:13;5.73;;;3.10;;
9526;SDS011;4802;51.494;6.770;2022-08-24T06:19:42;2.47;;;1.90;;
9526;SDS011;4802;51.494;6.770;2022-08-24T06:22:11;1.90;;;1.73;;
9526;SDS011;4802;51.494;6.770;2022-08-24T06:24:42;1.93;;;1.83;;
9526;SDS011;4802;51.494;6.770;2022-08-24T06:27:29;2.30;;;2.10;;
9526;SDS011;4802;51.494;6.770;2022-08-24T06:29:59;1.90;;;1.77;;
9526;SDS011;4802;51.494;6.770;2022-08-24T06:32:32;2.10;;;2.00;;
9526;SDS011;4802;51.494;6.770;2022-08-24T06:35:02;1.83;;;1.73;;
9526;SDS011;4802;51.494;6.770;2022-08-24T06:37:45;1.97;;;1.70;;
9526;SDS011;4802;51.494;6.770;2022-08-24T06:40:22;2.70;;;2.10;;
9526;SDS011;4802;51.494;6.770;2022-08-24T06:42:53;1.57;;;1.47;;
9526;SDS011;4802;51.494;6.770;2022-08-24T06:45:27;3.43;;;2.30;;
9526;SDS011;4802;51.494;6.770;2022-08-24T06:47:56;2.30;;;2.10;;
9526;SDS011;4802;51.494;6.770;2022-08-24T06:50:25;4.93;;;2.30;;
9526;SDS011;4802;51.494;6.770;2022-08-24T06:53:00;4.07;;;2.37;;
9526;SDS011;4802;51.494;6.770;2022-08-24T06:55:32;4.10;;;1.93;;
9526;SDS011;4802;51.494;6.770;2022-08-24T06:58:02;1.90;;;1.90;;
9526;SDS011;4802;51.494;6.770;2022-08-24T07:00:31;3.13;;;1.80;;
9526;SDS011;4802;51.494;6.770;2022-08-24T07:03:02;1.50;;;1.40;;
9526;SDS011;4802;51.494;6.770;2022-08-24T07:05:34;2.37;;;2.10;;
9526;SDS011;4802;51.494;6.770;2022-08-24T07:08:06;1.60;;;1.50;;
9526;SDS011;4802;51.494;6.770;2022-08-24T07:10:36;2.50;;;1.70;;
9526;SDS011;4802;51.494;6.770;2022-08-24T07:13:05;2.13;;;2.07;;
9526;SDS011;4802;51.494;6.770;2022-08-24T07:15:36;4.10;;;2.30;;
9526;SDS011;4802;51.494;6.770;2022-08-24T07:18:06;1.60;;;1.50;;
9526;SDS011;4802;51.494;6.770;2022-08-24T07:20:39;1.80;;;1.70;;
9526;SDS011;4802;51.494;6.770;2022-08-24T07:23:20;1.53;;;1.43;;
9526;SDS011;4802;51.494;6.770;2022-08-24T07:26:09;2.00;;;1.90;;
9526;SDS011;4802;51.494;6.770;2022-08-24T07:28:47;1.77;;;1.50;;
9526;SDS011;4802;51.494;6.770;2022-08-24T07:31:20;2.13;;;1.60;;
9526;SDS011;4802;51.494;6.770;2022-08-24T07:33:54;4.13;;;1.47;;
9526;SDS011;4802;51.494;6.770;2022-08-24T07:36:25;1.70;;;1.60;;
9526;SDS011;4802;51.494;6.770;2022-08-24T07:39:11;2.50;;;2.20;;
9526;SDS011;4802;51.494;6.770;2022-08-24T07:41:45;1.73;;;1.63;;
9526;SDS011;4802;51.494;6.770;2022-08-24T07:44:34;1.67;;;1.57;;
9526;SDS011;4802;51.494;6.770;2022-08-24T07:47:08;1.70;;;1.60;;
9526;SDS011;4802;51.494;6.770;2022-08-24T07:49:57;1.67;;;1.57;;
9526;SDS011;4802;51.494;6.770;2022-08-24T07:52:27;1.57;;;1.47;;
9526;SDS011;4802;51.494;6.770;2022-08-24T07:54:59;1.30;;;1.20;;
9526;SDS011;4802;51.494;6.770;2022-08-24T07:57:34;1.10;;;1.10;;
9526;SDS011;4802;51.494;6.770;2022-08-24T08:00:07;2.87;;;1.67;;
9526;SDS011;4802;51.494;6.770;2022-08-24T08:02:39;1.87;;;1.77;;
9526;SDS011;4802;51.494;6.770;2022-08-24T08:05:12;1.47;;;1.40;;
9526;SDS011;4802;51.494;6.770;2022-08-24T08:07:46;1.83;;;1.73;;
9526;SDS011;4802;51.494;6.770;2022-08-24T08:10:19;1.73;;;1.63;;
9526;SDS011;4802;51.494;6.770;2022-08-24T08:12:53;1.33;;;1.33;;
9526;SDS011;4802;51.494;6.770;2022-08-24T08:15:23;1.57;;;1.47;;
9526;SDS011;4802;51.494;6.770;2022-08-24T08:17:53;2.30;;;1.93;;
9526;SDS011;4802;51.494;6.770;2022-08-24T08:20:26;1.40;;;1.30;;
9526;SDS011;4802;51.494;6.770;2022-08-24T08:22:59;1.60;;;1.50;;
9526;SDS011;4802;51.494;6.770;2022-08-24T08:25:50;1.50;;;1.40;;
9526;SDS011;4802;51.494;6.770;2022-08-24T08:28:25;2.00;;;1.67;;
9526;SDS011;4802;51.494;6.770;2022-08-24T08:31:02;2.20;;;2.03;;
9526;SDS011;4802;51.494;6.770;2022-08-24T08:33:33;1.67;;;1.47;;
9526;SDS011;4802;51.494;6.770;2022-08-24T08:36:05;4.17;;;1.63;;
9526;SDS011;4802;51.494;6.770;2022-08-24T08:39:12;2.37;;;1.37;;
9526;SDS011;4802;51.494;6.770;2022-08-24T08:48:24;2.47;;;2.37;;
9526;SDS011;4802;51.494;6.770;2022-08-24T08:51:21;1.67;;;1.57;;
9526;SDS011;4802;51.494;6.770;2022-08-24T08:54:47;1.80;;;1.63;;
9526;SDS011;4802;51.494;6.770;2022-08-24T08:57:41;1.23;;;1.23;;
9526;SDS011;4802;51.494;6.770;2022-08-24T09:00:25;1.20;;;1.10;;
9526;SDS011;4802;51.494;6.770;2022-08-24T09:03:27;1.33;;;1.23;;
9526;SDS011;4802;51.494;6.770;2022-08-24T09:06:18;3.60;;;1.40;;
9526;SDS011;4802;51.494;6.770;2022-08-24T09:09:21;1.47;;;1.40;;
9526;SDS011;4802;51.494;6.770;2022-08-24T09:12:07;1.63;;;1.53;;
9526;SDS011;4802;51.494;6.770;2022-08-24T09:17:55;1.30;;;1.20;;
9526;SDS011;4802;51.494;6.770;2022-08-24T09:20:49;2.70;;;1.63;;
9526;SDS011;4802;51.494;6.770;2022-08-24T09:23:34;0.90;;;0.90;;
9526;SDS011;4802;51.494;6.770;2022-08-24T09:26:16;1.17;;;1.00;;
9526;SDS011;4802;51.494;6.770;2022-08-24T09:29:02;1.40;;;1.30;;
9526;SDS011;4802;51.494;6.770;2022-08-24T09:31:50;1.23;;;1.23;;
9526;SDS011;4802;51.494;6.770;2022-08-24T09:34:45;3.67;;;1.40;;
9526;SDS011;4802;51.494;6.770;2022-08-24T09:37:31;1.30;;;1.30;;
9526;SDS011;4802;51.494;6.770;2022-08-24T09:40:15;1.87;;;1.30;;
9526;SDS011;4802;51.494;6.770;2022-08-24T09:43:07;1.30;;;1.23;;
9526;SDS011;4802;51.494;6.770;2022-08-24T09:46:12;3.73;;;1.40;;
9526;SDS011;4802;51.494;6.770;2022-08-24T09:49:15;1.50;;;1.40;;
9526;SDS011;4802;51.494;6.770;2022-08-24T09:52:15;1.57;;;0.97;;
9526;SDS011;4802;51.494;6.770;2022-08-24T09:55:15;1.67;;;1.57;;
9526;SDS011;4802;51.494;6.770;2022-08-24T09:58:13;2.73;;;1.30;;
9526;SDS011;4802;51.494;6.770;2022-08-24T10:00:53;1.40;;;1.30;;
9526;SDS011;4802;51.494;6.770;2022-08-24T10:03:42;0.80;;;0.80;;
9526;SDS011;4802;51.494;6.770;2022-08-24T10:06:40;1.17;;;1.00;;
9526;SDS011;4802;51.494;6.770;2022-08-24T10:09:28;1.03;;;1.03;;
9526;SDS011;4802;51.494;6.770;2022-08-24T10:12:17;1.13;;;1.13;;
9526;SDS011;4802;51.494;6.770;2022-08-24T10:14:57;0.80;;;0.73;;
9526;SDS011;4802;51.494;6.770;2022-08-24T10:17:37;0.63;;;0.63;;
9526;SDS011;4802;51.494;6.770;2022-08-24T10:20:18;0.57;;;0.57;;
9526;SDS011;4802;51.494;6.770;2022-08-24T10:23:09;1.30;;;1.10;;
9526;SDS011;4802;51.494;6.770;2022-08-24T10:25:54;0.70;;;0.70;;
9526;SDS011;4802;51.494;6.770;2022-08-24T10:28:47;1.10;;;0.73;;
9526;SDS011;4802;51.494;6.770;2022-08-24T10:31:42;0.93;;;0.83;;
9526;SDS011;4802;51.494;6.770;2022-08-24T10:34:32;0.50;;;0.47;;
9526;SDS011;4802;51.494;6.770;2022-08-24T10:37:27;4.10;;;0.80;;
9526;SDS011;4802;51.494;6.770;2022-08-24T10:40:15;0.90;;;0.90;;
9526;SDS011;4802;51.494;6.770;2022-08-24T10:46:34;0.70;;;0.50;;
9526;SDS011;4802;51.494;6.770;2022-08-24T10:55:31;1.80;;;1.00;;
9526;SDS011;4802;51.494;6.770;2022-08-24T10:58:05;8.23;;;1.27;;
9526;SDS011;4802;51.494;6.770;2022-08-24T11:00:59;0.90;;;0.90;;
9526;SDS011;4802;51.494;6.770;2022-08-24T11:03:49;1.23;;;1.23;;
9526;SDS011;4802;51.494;6.770;2022-08-24T11:06:22;1.53;;;1.43;;
9526;SDS011;4802;51.494;6.770;2022-08-24T11:08:54;0.90;;;0.90;;
9526;SDS011;4802;51.494;6.770;2022-08-24T11:11:32;1.53;;;0.70;;
9526;SDS011;4802;51.494;6.770;2022-08-24T11:14:06;0.90;;;0.90;;
9526;SDS011;4802;51.494;6.770;2022-08-24T11:16:39;1.10;;;0.93;;
9526;SDS011;4802;51.494;6.770;2022-08-24T11:19:12;1.00;;;0.60;;
9526;SDS011;4802;51.494;6.770;2022-08-24T11:21:58;0.90;;;0.90;;
9526;SDS011;4802;51.494;6.770;2022-08-24T11:24:38;1.23;;;1.13;;
9526;SDS011;4802;51.494;6.770;2022-08-24T11:27:21;0.83;;;0.83;;
9526;SDS011;4802;51.494;6.770;2022-08-24T11:29:57;1.17;;;1.07;;
9526;SDS011;4802;51.494;6.770;2022-08-24T11:32:30;0.63;;;0.50;;
9526;SDS011;4802;51.494;6.770;2022-08-24T11:35:06;1.30;;;1.20;;
9526;SDS011;4802;51.494;6.770;2022-08-24T11:37:43;1.77;;;1.00;;
9526;SDS011;4802;51.494;6.770;2022-08-24T11:40:13;1.13;;;1.03;;
9526;SDS011;4802;51.494;6.770;2022-08-24T11:42:50;0.73;;;0.73;;
9526;SDS011;4802;51.494;6.770;2022-08-24T11:45:40;2.60;;;0.70;;
9526;SDS011;4802;51.494;6.770;2022-08-24T11:48:17;1.10;;;1.00;;
9526;SDS011;4802;51.494;6.770;2022-08-24T11:50:56;0.50;;;0.50;;
9526;SDS011;4802;51.494;6.770;2022-08-24T11:53:33;0.70;;;0.70;;
9526;SDS011;4802;51.494;6.770;2022-08-24T11:56:13;0.70;;;0.67;;
9526;SDS011;4802;51.494;6.770;2022-08-24T11:58:54;1.80;;;1.27;;
9526;SDS011;4802;51.494;6.770;2022-08-24T12:01:28;0.90;;;0.63;;
9526;SDS011;4802;51.494;6.770;2022-08-24T12:04:12;1.00;;;0.90;;
9526;SDS011;4802;51.494;6.770;2022-08-24T12:06:55;0.60;;;0.60;;
9526;SDS011;4802;51.494;6.770;2022-08-24T12:09:37;0.73;;;0.70;;
9526;SDS011;4802;51.494;6.770;2022-08-24T12:12:20;0.73;;;0.73;;
9526;SDS011;4802;51.494;6.770;2022-08-24T12:15:02;0.80;;;0.80;;
9526;SDS011;4802;51.494;6.770;2022-08-24T12:17:39;1.00;;;0.73;;
9526;SDS011;4802;51.494;6.770;2022-08-24T12:20:13;1.07;;;0.70;;
9526;SDS011;4802;51.494;6.770;2022-08-24T12:22:54;1.57;;;0.83;;
9526;SDS011;4802;51.494;6.770;2022-08-24T12:25:27;0.60;;;0.60;;
9526;SDS011;4802;51.494;6.770;2022-08-24T12:28:19;0.80;;;0.73;;
9526;SDS011;4802;51.494;6.770;2022-08-24T12:30:53;0.83;;;0.83;;
9526;SDS011;4802;51.494;6.770;2022-08-24T12:33:28;1.87;;;0.70;;
9526;SDS011;4802;51.494;6.770;2022-08-24T12:36:04;1.37;;;0.93;;
9526;SDS011;4802;51.494;6.770;2022-08-24T12:38:42;0.80;;;0.80;;
9526;SDS011;4802;51.494;6.770;2022-08-24T12:41:18;1.00;;;0.90;;
9526;SDS011;4802;51.494;6.770;2022-08-24T12:43:54;0.63;;;0.63;;
9526;SDS011;4802;51.494;6.770;2022-08-24T12:47:00;0.50;;;0.50;;
9526;SDS011;4802;51.494;6.770;2022-08-24T12:49:52;0.60;;;0.50;;
9526;SDS011;4802;51.494;6.770;2022-08-24T12:52:38;3.33;;;1.17;;
9526;SDS011;4802;51.494;6.770;2022-08-24T12:58:55;1.47;;;1.37;;
9526;SDS011;4802;51.494;6.770;2022-08-24T13:01:28;1.50;;;1.40;;
9526;SDS011;4802;51.494;6.770;2022-08-24T13:04:07;0.60;;;0.60;;
9526;SDS011;4802;51.494;6.770;2022-08-24T13:06:44;1.53;;;1.40;;
9526;SDS011;4802;51.494;6.770;2022-08-24T13:09:28;1.20;;;1.10;;
9526;SDS011;4802;51.494;6.770;2022-08-24T13:15:18;1.27;;;1.27;;
9526;SDS011;4802;51.494;6.770;2022-08-24T13:30:21;2.40;;;1.10;;
9526;SDS011;4802;51.494;6.770;2022-08-24T13:33:25;1.03;;;1.03;;
9526;SDS011;4802;51.494;6.770;2022-08-24T13:36:03;2.33;;;1.77;;
9526;SDS011;4802;51.494;6.770;2022-08-24T13:41:45;0.73;;;0.73;;
9526;SDS011;4802;51.494;6.770;2022-08-24T13:44:26;2.03;;;1.10;;
9526;SDS011;4802;51.494;6.770;2022-08-24T13:47:10;1.13;;;1.10;;
9526;SDS011;4802;51.494;6.770;2022-08-24T13:49:49;0.70;;;0.70;;
9526;SDS011;4802;51.494;6.770;2022-08-24T13:52:41;0.80;;;0.80;;
9526;SDS011;4802;51.494;6.770;2022-08-24T13:58:13;1.57;;;1.03;;
9526;SDS011;4802;51.494;6.770;2022-08-24T14:00:48;1.60;;;1.50;;
9526;SDS011;4802;51.494;6.770;2022-08-24T14:06:28;0.97;;;0.97;;
9526;SDS011;4802;51.494;6.770;2022-08-24T14:09:10;4.60;;;1.33;;
9526;SDS011;4802;51.494;6.770;2022-08-24T14:12:00;2.40;;;1.30;;
9526;SDS011;4802;51.494;6.770;2022-08-24T14:17:46;1.83;;;1.30;;
9526;SDS011;4802;51.494;6.770;2022-08-24T14:20:30;1.57;;;1.47;;
9526;SDS011;4802;51.494;6.770;2022-08-24T14:29:29;3.30;;;1.47;;
9526;SDS011;4802;51.494;6.770;2022-08-24T14:35:08;1.00;;;1.00;;
9526;SDS011;4802;51.494;6.770;2022-08-24T14:38:11;1.10;;;1.10;;
9526;SDS011;4802;51.494;6.770;2022-08-24T14:47:30;1.10;;;1.10;;
9526;SDS011;4802;51.494;6.770;2022-08-24T14:50:10;1.77;;;1.67;;
9526;SDS011;4802;51.494;6.770;2022-08-24T14:52:51;1.67;;;1.57;;
9526;SDS011;4802;51.494;6.770;2022-08-24T14:55:29;1.77;;;1.30;;
9526;SDS011;4802;51.494;6.770;2022-08-24T14:58:08;1.03;;;1.00;;
9526;SDS011;4802;51.494;6.770;2022-08-24T15:00:55;0.87;;;0.87;;
9526;SDS011;4802;51.494;6.770;2022-08-24T15:03:53;5.20;;;2.00;;
9526;SDS011;4802;51.494;6.770;2022-08-24T15:09:57;1.17;;;1.07;;
9526;SDS011;4802;51.494;6.770;2022-08-24T15:12:31;0.80;;;0.80;;
9526;SDS011;4802;51.494;6.770;2022-08-24T15:15:08;0.77;;;0.77;;
9526;SDS011;4802;51.494;6.770;2022-08-24T15:17:45;1.17;;;1.17;;
9526;SDS011;4802;51.494;6.770;2022-08-24T15:20:26;1.00;;;1.00;;
9526;SDS011;4802;51.494;6.770;2022-08-24T15:23:16;1.10;;;1.10;;
9526;SDS011;4802;51.494;6.770;2022-08-24T15:25:53;1.30;;;1.30;;
9526;SDS011;4802;51.494;6.770;2022-08-24T15:28:29;1.70;;;1.10;;
9526;SDS011;4802;51.494;6.770;2022-08-24T15:31:04;2.47;;;2.27;;
9526;SDS011;4802;51.494;6.770;2022-08-24T15:33:54;1.90;;;1.07;;
9526;SDS011;4802;51.494;6.770;2022-08-24T15:36:58;1.03;;;1.03;;
9526;SDS011;4802;51.494;6.770;2022-08-24T15:39:29;1.57;;;1.47;;
9526;SDS011;4802;51.494;6.770;2022-08-24T15:41:59;1.53;;;1.53;;
9526;SDS011;4802;51.494;6.770;2022-08-24T15:44:36;1.93;;;1.00;;
9526;SDS011;4802;51.494;6.770;2022-08-24T15:47:11;2.20;;;0.83;;
9526;SDS011;4802;51.494;6.770;2022-08-24T15:49:53;2.70;;;1.93;;
9526;SDS011;4802;51.494;6.770;2022-08-24T15:52:39;1.70;;;1.60;;
9526;SDS011;4802;51.494;6.770;2022-08-24T15:55:25;2.40;;;1.33;;
9526;SDS011;4802;51.494;6.770;2022-08-24T15:58:11;1.27;;;1.17;;
9526;SDS011;4802;51.494;6.770;2022-08-24T16:00:52;1.77;;;1.67;;
9526;SDS011;4802;51.494;6.770;2022-08-24T16:03:48;1.73;;;1.63;;
9526;SDS011;4802;51.494;6.770;2022-08-24T16:06:24;1.07;;;0.90;;
9526;SDS011;4802;51.494;6.770;2022-08-24T16:09:05;2.27;;;1.80;;
9526;SDS011;4802;51.494;6.770;2022-08-24T16:11:38;2.40;;;1.80;;
9526;SDS011;4802;51.494;6.770;2022-08-24T16:14:22;1.20;;;1.20;;
9526;SDS011;4802;51.494;6.770;2022-08-24T16:16:54;0.90;;;0.90;;
9526;SDS011;4802;51.494;6.770;2022-08-24T16:19:27;2.07;;;1.60;;
9526;SDS011;4802;51.494;6.770;2022-08-24T16:22:02;1.63;;;1.53;;
9526;SDS011;4802;51.494;6.770;2022-08-24T16:24:37;1.27;;;1.17;;
9526;SDS011;4802;51.494;6.770;2022-08-24T16:27:14;2.17;;;2.03;;
9526;SDS011;4802;51.494;6.770;2022-08-24T16:29:50;1.90;;;1.27;;
9526;SDS011;4802;51.494;6.770;2022-08-24T16:32:24;1.67;;;1.57;;
9526;SDS011;4802;51.494;6.770;2022-08-24T16:35:16;1.53;;;1.50;;
9526;SDS011;4802;51.494;6.770;2022-08-24T16:37:47;1.03;;;0.97;;
9526;SDS011;4802;51.494;6.770;2022-08-24T16:40:24;1.60;;;1.00;;
9526;SDS011;4802;51.494;6.770;2022-08-24T16:42:54;1.97;;;1.70;;
9526;SDS011;4802;51.494;6.770;2022-08-24T16:45:26;1.00;;;1.00;;
9526;SDS011;4802;51.494;6.770;2022-08-24T16:48:02;1.40;;;1.30;;
9526;SDS011;4802;51.494;6.770;2022-08-24T16:50:35;1.37;;;1.37;;
9526;SDS011;4802;51.494;6.770;2022-08-24T16:53:06;1.40;;;1.30;;
9526;SDS011;4802;51.494;6.770;2022-08-24T16:55:38;2.07;;;1.20;;
9526;SDS011;4802;51.494;6.770;2022-08-24T16:58:11;1.13;;;1.00;;
9526;SDS011;4802;51.494;6.770;2022-08-24T17:00:48;6.40;;;1.40;;
9526;SDS011;4802;51.494;6.770;2022-08-24T17:03:20;1.87;;;1.77;;
9526;SDS011;4802;51.494;6.770;2022-08-24T17:05:55;1.23;;;1.23;;
9526;SDS011;4802;51.494;6.770;2022-08-24T17:08:27;1.03;;;0.97;;
9526;SDS011;4802;51.494;6.770;2022-08-24T17:11:00;1.60;;;1.50;;
9526;SDS011;4802;51.494;6.770;2022-08-24T17:13:30;1.50;;;1.40;;
9526;SDS011;4802;51.494;6.770;2022-08-24T17:16:19;2.17;;;2.00;;
9526;SDS011;4802;51.494;6.770;2022-08-24T17:18:49;1.83;;;1.73;;
9526;SDS011;4802;51.494;6.770;2022-08-24T17:21:26;1.27;;;1.17;;
9526;SDS011;4802;51.494;6.770;2022-08-24T17:23:56;3.47;;;2.53;;
9526;SDS011;4802;51.494;6.770;2022-08-24T17:26:27;1.50;;;1.40;;
9526;SDS011;4802;51.494;6.770;2022-08-24T17:28:58;1.17;;;1.17;;
9526;SDS011;4802;51.494;6.770;2022-08-24T17:31:31;1.37;;;1.20;;